createdAt,value
2019-03-03T00:00:21.567Z,7.33
2019-03-03T00:02:49.593Z,6.55
2019-03-03T00:05:17.448Z,5.78
2019-03-03T00:07:46.026Z,6.58
2019-03-03T00:10:14.741Z,5.30
2019-03-03T00:12:42.570Z,5.60
2019-03-03T00:15:12.032Z,6.22
2019-03-03T00:17:40.163Z,5.25
2019-03-03T00:20:08.163Z,6.72
2019-03-03T00:22:35.731Z,5.42
2019-03-03T00:25:05.116Z,5.25
2019-03-03T00:27:33.480Z,4.75
2019-03-03T00:30:02.056Z,5.60
2019-03-03T00:32:30.877Z,5.42
2019-03-03T00:34:59.731Z,4.87
2019-03-03T00:37:39.918Z,5.05
2019-03-03T00:40:28.105Z,5.03
2019-03-03T00:43:06.991Z,4.33
2019-03-03T00:45:57.394Z,4.67
2019-03-03T00:48:42.441Z,4.20
2019-03-03T00:51:45.643Z,4.55
2019-03-03T00:54:22.219Z,4.20
2019-03-03T00:57:13.626Z,4.50
2019-03-03T01:00:06.542Z,3.70
2019-03-03T01:02:41.594Z,3.45
2019-03-03T01:05:35.798Z,3.50
2019-03-03T01:08:26.990Z,3.55
2019-03-03T01:11:09.443Z,3.20
2019-03-03T01:13:51.878Z,3.35
2019-03-03T01:16:40.435Z,3.42
2019-03-03T01:19:15.538Z,3.10
2019-03-03T01:22:05.138Z,3.08
2019-03-03T01:24:58.435Z,2.50
2019-03-03T01:27:26.607Z,2.45
2019-03-03T01:29:56.277Z,2.87
2019-03-03T01:32:24.226Z,3.42
2019-03-03T01:34:51.850Z,3.10
2019-03-03T01:37:19.149Z,2.70
2019-03-03T01:39:46.269Z,2.20
2019-03-03T01:42:13.442Z,2.47
2019-03-03T01:44:40.669Z,2.20
2019-03-03T01:47:07.946Z,2.62
2019-03-03T01:49:35.047Z,2.40
2019-03-03T01:52:02.338Z,2.37
2019-03-03T01:54:29.548Z,2.60
2019-03-03T01:56:57.186Z,2.55
2019-03-03T01:59:24.991Z,2.62
2019-03-03T02:01:52.216Z,2.70
2019-03-03T02:04:20.633Z,2.20
2019-03-03T02:06:48.834Z,2.20
2019-03-03T02:09:16.468Z,2.65
2019-03-03T02:11:44.338Z,2.80
2019-03-03T02:14:12.121Z,2.65
2019-03-03T02:16:39.636Z,2.60
2019-03-03T02:19:07.199Z,2.85
2019-03-03T02:21:35.161Z,2.40
2019-03-03T02:24:02.361Z,3.00
2019-03-03T02:26:30.058Z,3.22
2019-03-03T02:28:57.320Z,3.00
2019-03-03T02:31:24.560Z,2.35
2019-03-03T02:33:51.757Z,3.15
2019-03-03T02:36:19.064Z,2.80
2019-03-03T02:38:46.314Z,2.92
2019-03-03T02:41:13.710Z,2.85
2019-03-03T02:43:40.973Z,3.30
2019-03-03T02:46:08.306Z,3.08
2019-03-03T02:48:35.562Z,3.10
2019-03-03T02:51:02.892Z,3.50
2019-03-03T02:53:30.211Z,2.90
2019-03-03T02:55:58.048Z,3.30
2019-03-03T02:58:25.859Z,3.10
2019-03-03T03:01:00.753Z,2.80
2019-03-03T03:03:28.289Z,3.42
2019-03-03T03:06:14.895Z,3.12
2019-03-03T03:09:00.470Z,2.60
2019-03-03T03:11:39.135Z,3.12
2019-03-03T03:14:14.079Z,3.60
2019-03-03T03:16:54.494Z,2.95
2019-03-03T03:19:29.064Z,3.37
2019-03-03T03:22:16.030Z,3.22
2019-03-03T03:25:09.920Z,3.42
2019-03-03T03:27:57.952Z,3.50
2019-03-03T03:30:39.044Z,3.10
2019-03-03T03:33:18.940Z,3.17
2019-03-03T03:35:59.232Z,3.10
2019-03-03T03:38:47.110Z,3.70
2019-03-03T03:41:20.482Z,3.35
2019-03-03T03:44:14.870Z,3.40
2019-03-03T03:47:05.565Z,4.17
2019-03-03T03:49:43.109Z,3.40
2019-03-03T03:52:49.235Z,3.85
2019-03-03T03:55:37.184Z,3.05
2019-03-03T03:58:16.561Z,2.87
2019-03-03T04:01:01.003Z,3.35
2019-03-03T04:03:38.594Z,3.40
2019-03-03T04:06:26.640Z,3.20
2019-03-03T04:09:32.643Z,3.40
2019-03-03T04:12:10.113Z,2.70
2019-03-03T04:15:00.735Z,3.22
2019-03-03T04:17:40.197Z,3.27
2019-03-03T04:20:20.918Z,2.70
2019-03-03T04:22:56.844Z,3.00
2019-03-03T04:25:43.363Z,3.30
2019-03-03T04:28:36.782Z,3.10
2019-03-03T04:31:17.706Z,3.30
2019-03-03T04:33:51.135Z,4.08
2019-03-03T04:36:29.865Z,3.42
2019-03-03T04:39:17.973Z,3.37
2019-03-03T04:41:57.884Z,3.70
2019-03-03T04:44:37.698Z,3.80
2019-03-03T04:47:31.623Z,3.60
2019-03-03T04:50:18.474Z,3.15
2019-03-03T04:52:53.386Z,3.52
2019-03-03T04:55:56.762Z,3.58
2019-03-03T04:58:34.650Z,3.62
2019-03-03T05:01:18.011Z,2.98
2019-03-03T05:03:54.069Z,3.67
2019-03-03T05:06:57.613Z,4.70
2019-03-03T05:09:39.923Z,3.55
2019-03-03T05:12:32.769Z,4.22
2019-03-03T05:15:26.822Z,3.30
2019-03-03T05:17:59.890Z,3.42
2019-03-03T05:20:44.362Z,3.55
2019-03-03T05:23:12.330Z,3.65
2019-03-03T05:25:39.767Z,3.58
2019-03-03T05:28:07.288Z,4.15
2019-03-03T05:30:34.574Z,3.60
2019-03-03T05:33:02.349Z,4.15
2019-03-03T05:35:30.309Z,3.87
2019-03-03T05:37:58.615Z,3.83
2019-03-03T05:40:26.135Z,3.55
2019-03-03T05:42:54.111Z,3.83
2019-03-03T05:45:21.633Z,3.90
2019-03-03T05:47:49.494Z,4.12
2019-03-03T05:50:17.456Z,4.00
2019-03-03T05:52:44.708Z,3.40
2019-03-03T05:55:12.693Z,3.60
2019-03-03T05:57:40.261Z,3.80
2019-03-03T06:00:07.737Z,4.17
2019-03-03T06:02:35.135Z,3.95
2019-03-03T06:05:02.540Z,4.40
2019-03-03T06:07:29.835Z,4.20
2019-03-03T06:09:57.115Z,4.00
2019-03-03T06:12:24.407Z,4.67
2019-03-03T06:14:51.717Z,3.80
2019-03-03T06:17:18.980Z,4.30
2019-03-03T06:19:46.496Z,3.55
2019-03-03T06:22:13.706Z,4.80
2019-03-03T06:24:41.346Z,5.30
2019-03-03T06:27:08.606Z,4.35
2019-03-03T06:29:35.812Z,3.65
2019-03-03T06:32:03.141Z,4.22
2019-03-03T06:34:31.320Z,4.28
2019-03-03T06:36:59.619Z,4.10
2019-03-03T06:39:27.195Z,3.65
2019-03-03T06:41:55.593Z,4.60
2019-03-03T06:44:23.862Z,4.08
2019-03-03T06:46:52.268Z,4.47
2019-03-03T06:49:20.691Z,4.42
2019-03-03T06:51:48.609Z,3.90
2019-03-03T06:54:16.868Z,4.15
2019-03-03T06:56:45.688Z,4.55
2019-03-03T06:59:14.573Z,4.60
2019-03-03T07:01:43.169Z,4.40
2019-03-03T07:04:12.041Z,4.83
2019-03-03T07:06:40.918Z,5.22
2019-03-03T07:09:09.299Z,4.90
2019-03-03T07:11:36.779Z,4.80
2019-03-03T07:14:05.369Z,5.25
2019-03-03T07:16:34.106Z,5.10
2019-03-03T07:19:01.808Z,5.90
2019-03-03T07:21:30.696Z,5.80
2019-03-03T07:23:59.282Z,5.10
2019-03-03T07:26:28.171Z,4.85
2019-03-03T07:28:56.867Z,5.47
2019-03-03T07:31:24.605Z,5.78
2019-03-03T07:33:56.588Z,6.37
2019-03-03T07:36:25.694Z,4.78
2019-03-03T07:38:52.842Z,5.35
2019-03-03T07:41:21.844Z,5.95
2019-03-03T07:43:49.702Z,5.92
2019-03-03T07:46:18.575Z,5.55
2019-03-03T07:48:47.719Z,5.40
2019-03-03T07:51:16.414Z,5.00
2019-03-03T07:53:44.037Z,5.35
2019-03-03T07:56:13.766Z,5.75
2019-03-03T07:58:41.543Z,5.97
2019-03-03T08:01:10.483Z,6.10
2019-03-03T08:03:38.971Z,5.85
2019-03-03T08:06:09.712Z,5.90
2019-03-03T08:08:37.099Z,5.90
2019-03-03T08:11:04.703Z,6.33
2019-03-03T08:13:32.179Z,6.40
2019-03-03T08:16:01.175Z,6.15
2019-03-03T08:18:30.068Z,6.55
2019-03-03T08:20:58.242Z,6.97
2019-03-03T08:23:26.973Z,7.65
2019-03-03T08:25:55.998Z,5.90
2019-03-03T08:28:25.165Z,6.05
2019-03-03T08:30:53.743Z,6.45
2019-03-03T08:33:22.683Z,6.95
2019-03-03T08:35:51.570Z,6.05
2019-03-03T08:38:19.889Z,6.08
2019-03-03T08:40:48.844Z,6.17
2019-03-03T08:43:32.371Z,6.58
2019-03-03T08:46:26.776Z,6.50
2019-03-03T08:49:09.510Z,6.90
2019-03-03T08:51:43.618Z,7.15
2019-03-03T08:54:21.786Z,6.50
2019-03-03T08:57:04.444Z,8.10
2019-03-03T08:59:55.295Z,7.35
2019-03-03T09:02:33.265Z,7.70
2019-03-03T09:05:13.163Z,7.15
2019-03-03T09:08:08.664Z,7.55
2019-03-03T09:10:55.503Z,7.75
2019-03-03T09:13:43.752Z,7.10
2019-03-03T09:16:18.279Z,7.53
2019-03-03T09:19:14.919Z,6.37
2019-03-03T09:21:59.677Z,7.22
2019-03-03T09:24:48.246Z,7.90
2019-03-03T09:27:34.610Z,7.53
2019-03-03T09:30:20.618Z,7.92
2019-03-03T09:33:00.616Z,6.53
2019-03-03T09:35:55.915Z,7.53
2019-03-03T09:38:47.587Z,7.80
2019-03-03T09:41:33.542Z,6.80
2019-03-03T09:44:21.496Z,7.22
2019-03-03T09:46:59.957Z,7.85
2019-03-03T09:49:35.514Z,5.87
2019-03-03T09:52:26.740Z,6.85
2019-03-03T09:55:19.727Z,6.95
2019-03-03T09:58:25.326Z,6.30
2019-03-03T10:01:13.435Z,5.40
2019-03-03T10:04:00.449Z,6.72
2019-03-03T10:06:44.035Z,6.25
2019-03-03T10:09:17.557Z,6.20
2019-03-03T10:12:16.529Z,5.10
2019-03-03T10:15:09.244Z,6.37
2019-03-03T10:17:52.998Z,5.28
2019-03-03T10:20:48.367Z,6.50
2019-03-03T10:23:31.076Z,6.05
2019-03-03T10:26:11.715Z,6.05
2019-03-03T10:28:57.536Z,5.40
2019-03-03T10:31:51.127Z,5.10
2019-03-03T10:34:27.022Z,5.80
2019-03-03T10:37:18.295Z,5.25
2019-03-03T10:39:56.496Z,6.08
2019-03-03T10:42:40.926Z,5.40
2019-03-03T10:45:29.893Z,4.72
2019-03-03T10:48:10.239Z,4.80
2019-03-03T10:50:56.894Z,4.53
2019-03-03T10:53:45.010Z,5.45
2019-03-03T10:56:31.941Z,4.78
2019-03-03T10:59:09.294Z,4.95
2019-03-03T11:01:47.875Z,4.67
2019-03-03T11:04:43.532Z,5.30
2019-03-03T11:07:16.839Z,5.65
2019-03-03T11:10:02.274Z,5.20
2019-03-03T11:12:38.240Z,5.50
2019-03-03T11:15:26.287Z,5.67
2019-03-03T11:18:09.007Z,5.03
2019-03-03T11:20:55.814Z,4.85
2019-03-03T11:23:34.114Z,4.70
2019-03-03T11:26:19.656Z,4.65
2019-03-03T11:29:18.818Z,4.72
2019-03-03T11:31:52.606Z,4.97
2019-03-03T11:34:51.549Z,5.08
2019-03-03T11:37:41.335Z,4.83
2019-03-03T11:40:18.813Z,4.62
2019-03-03T11:43:20.794Z,4.90
2019-03-03T11:45:59.996Z,4.08
2019-03-03T11:48:45.497Z,4.83
2019-03-03T11:51:37.906Z,5.62
2019-03-03T11:54:10.806Z,5.12
2019-03-03T11:56:50.854Z,5.28
2019-03-03T11:59:35.530Z,5.08
2019-03-03T12:02:34.897Z,6.30
2019-03-03T12:05:12.843Z,5.58
2019-03-03T12:07:47.763Z,6.08
2019-03-03T12:10:41.918Z,5.40
2019-03-03T12:13:18.698Z,5.17
2019-03-03T12:16:04.065Z,5.72
2019-03-03T12:18:41.889Z,5.28
2019-03-03T12:21:17.536Z,5.50
2019-03-03T12:23:58.215Z,5.35
2019-03-03T12:26:52.087Z,6.00
2019-03-03T12:29:42.559Z,5.90
2019-03-03T12:32:39.322Z,5.80
2019-03-03T12:35:27.798Z,6.05
2019-03-03T12:38:24.839Z,6.42
2019-03-03T12:41:03.266Z,6.35
2019-03-03T12:43:38.277Z,6.20
2019-03-03T12:46:26.099Z,7.90
2019-03-03T12:49:20.034Z,7.83
2019-03-03T12:52:09.890Z,7.92
2019-03-03T12:55:15.444Z,7.80
2019-03-03T12:58:11.077Z,7.62
2019-03-03T13:01:11.387Z,7.17
2019-03-03T13:03:55.624Z,8.05
2019-03-03T13:06:43.460Z,7.55
2019-03-03T13:09:30.117Z,6.97
2019-03-03T13:12:32.747Z,7.35
2019-03-03T13:15:35.766Z,8.05
2019-03-03T13:18:18.415Z,8.15
2019-03-03T13:21:05.546Z,8.05
2019-03-03T13:23:49.139Z,7.30
2019-03-03T13:26:24.035Z,8.08
2019-03-03T13:29:11.207Z,8.20
2019-03-03T13:31:49.104Z,7.80
2019-03-03T13:34:35.415Z,7.10
2019-03-03T13:37:25.418Z,7.90
2019-03-03T13:40:28.593Z,6.80
2019-03-03T13:42:58.161Z,7.30
2019-03-03T13:45:29.364Z,7.47
2019-03-03T13:47:58.401Z,6.37
2019-03-03T13:50:27.446Z,7.10
2019-03-03T13:52:56.268Z,6.95
2019-03-03T13:55:25.533Z,7.15
2019-03-03T13:57:54.623Z,7.92
2019-03-03T14:00:23.928Z,8.23
2019-03-03T14:02:53.178Z,8.70
2019-03-03T14:05:22.823Z,8.40
2019-03-03T14:07:51.508Z,8.48
2019-03-03T14:10:20.308Z,8.45
2019-03-03T14:12:49.337Z,9.58
2019-03-03T14:15:18.520Z,9.05
2019-03-03T14:17:47.420Z,8.53
2019-03-03T14:20:21.039Z,8.50
2019-03-03T14:22:51.218Z,7.60
2019-03-03T14:25:19.752Z,8.25
2019-03-03T14:27:48.609Z,8.28
2019-03-03T14:30:19.179Z,7.50
2019-03-03T14:32:47.794Z,7.10
2019-03-03T14:35:16.398Z,6.83
2019-03-03T14:37:45.375Z,7.00
2019-03-03T14:40:15.571Z,8.25
2019-03-03T14:42:44.212Z,7.75
2019-03-03T14:45:14.464Z,6.97
2019-03-03T14:47:43.399Z,7.72
2019-03-03T14:50:13.533Z,7.60
2019-03-03T14:52:41.899Z,7.30
2019-03-03T14:55:12.118Z,7.53
2019-03-03T14:57:40.658Z,7.50
2019-03-03T15:00:27.583Z,7.62
2019-03-03T15:02:55.297Z,7.47
2019-03-03T15:05:22.486Z,7.45
2019-03-03T15:07:50.312Z,8.18
2019-03-03T15:10:18.166Z,6.65
2019-03-03T15:12:46.032Z,6.97
2019-03-03T15:15:14.109Z,6.78
2019-03-03T15:17:41.658Z,6.28
2019-03-03T15:20:09.293Z,6.22
2019-03-03T15:22:37.811Z,6.17
2019-03-03T15:25:06.977Z,6.33
2019-03-03T15:27:34.967Z,6.00
2019-03-03T15:30:04.773Z,9.23
2019-03-03T15:32:32.670Z,6.60
2019-03-03T15:35:01.419Z,6.45
2019-03-03T15:37:29.094Z,5.95
2019-03-03T15:39:57.787Z,6.30
2019-03-03T15:42:26.377Z,7.10
2019-03-03T15:44:55.502Z,6.60
2019-03-03T15:47:23.480Z,6.83
2019-03-03T15:49:52.026Z,6.25
2019-03-03T15:52:20.632Z,7.20
2019-03-03T15:54:49.146Z,6.83
2019-03-03T15:57:18.382Z,6.72
2019-03-03T15:59:45.575Z,6.08
2019-03-03T16:02:14.961Z,6.60
2019-03-03T16:04:47.308Z,6.62
2019-03-03T16:07:15.062Z,5.90
2019-03-03T16:09:42.930Z,6.08
2019-03-03T16:12:10.831Z,6.22
2019-03-03T16:14:38.246Z,5.97
2019-03-03T16:17:07.578Z,5.90
2019-03-03T16:19:35.770Z,5.72
2019-03-03T16:22:04.826Z,6.03
2019-03-03T16:24:33.136Z,5.22
2019-03-03T16:27:01.709Z,5.85
2019-03-03T16:29:29.958Z,5.10
2019-03-03T16:31:58.758Z,5.10
2019-03-03T16:34:27.584Z,4.58
2019-03-03T16:36:55.202Z,4.72
2019-03-03T16:39:23.791Z,5.28
2019-03-03T16:41:52.306Z,4.22
2019-03-03T16:44:20.337Z,4.12
2019-03-03T16:46:48.798Z,4.30
2019-03-03T16:49:17.486Z,4.53
2019-03-03T16:51:47.014Z,3.90
2019-03-03T16:54:14.575Z,4.65
2019-03-03T16:56:42.766Z,3.77
2019-03-03T16:59:11.810Z,4.22
2019-03-03T17:01:40.674Z,3.98
2019-03-03T17:04:09.415Z,3.57
2019-03-03T17:06:36.978Z,3.70
2019-03-03T17:09:05.501Z,3.98
2019-03-03T17:11:34.042Z,3.58
2019-03-03T17:14:02.533Z,3.90
2019-03-03T17:16:31.042Z,3.43
2019-03-03T17:18:59.559Z,3.62
2019-03-03T17:21:28.206Z,3.90
2019-03-03T17:23:55.575Z,3.35
2019-03-03T17:26:23.819Z,4.47
2019-03-03T17:28:51.046Z,4.10
2019-03-03T17:31:19.424Z,3.90
2019-03-03T17:33:47.766Z,3.55
2019-03-03T17:36:16.053Z,3.63
2019-03-03T17:38:44.543Z,3.95
2019-03-03T17:41:12.130Z,3.80
2019-03-03T17:43:40.339Z,3.40
2019-03-03T17:46:08.594Z,4.40
2019-03-03T17:48:36.978Z,4.25
2019-03-03T17:51:05.214Z,4.30
2019-03-03T17:53:33.652Z,4.37
2019-03-03T17:56:01.862Z,3.70
2019-03-03T17:58:30.182Z,4.05
2019-03-03T18:00:58.915Z,4.50
2019-03-03T18:03:27.223Z,3.70
2019-03-03T18:05:55.823Z,4.30
2019-03-03T18:08:24.811Z,3.70
2019-03-03T18:10:53.570Z,4.15
2019-03-03T18:13:21.267Z,3.55
2019-03-03T18:15:49.866Z,3.80
2019-03-03T18:18:18.662Z,4.50
2019-03-03T18:20:47.524Z,4.67
2019-03-03T18:23:15.102Z,4.58
2019-03-03T18:25:43.909Z,3.37
2019-03-03T18:28:12.672Z,3.95
2019-03-03T18:30:41.156Z,3.97
2019-03-03T18:33:08.438Z,3.90
2019-03-03T18:35:36.886Z,3.92
2019-03-03T18:38:05.308Z,4.60
2019-03-03T18:40:33.759Z,4.65
2019-03-03T18:43:02.218Z,4.15
2019-03-03T18:45:31.548Z,4.10
2019-03-03T18:48:00.313Z,4.60
2019-03-03T18:50:28.477Z,4.90
2019-03-03T18:52:59.667Z,3.72
2019-03-03T18:55:26.878Z,4.12
2019-03-03T18:57:54.481Z,4.03
2019-03-03T19:00:23.488Z,4.03
2019-03-03T19:02:52.325Z,4.15
2019-03-03T19:05:21.314Z,4.30
2019-03-03T19:07:50.978Z,4.67
2019-03-03T19:10:19.477Z,4.28
2019-03-03T19:12:46.946Z,4.37
2019-03-03T19:15:15.910Z,4.45
2019-03-03T19:17:44.783Z,4.40
2019-03-03T19:20:14.869Z,4.35
2019-03-03T19:22:42.310Z,4.35
2019-03-03T19:25:11.599Z,3.85
2019-03-03T19:27:40.836Z,4.40
2019-03-03T19:30:19.936Z,4.12
2019-03-03T19:32:50.305Z,4.28
2019-03-03T19:35:17.635Z,4.70
2019-03-03T19:37:44.918Z,4.65
2019-03-03T19:40:12.365Z,4.20
2019-03-03T19:42:40.014Z,4.55
2019-03-03T19:45:11.739Z,4.12
2019-03-03T19:47:39.201Z,4.22
2019-03-03T19:50:09.159Z,3.70
2019-03-03T19:52:37.491Z,4.17
2019-03-03T19:55:07.491Z,4.20
2019-03-03T19:57:35.787Z,3.62
2019-03-03T20:00:05.564Z,4.60
2019-03-03T20:02:33.163Z,5.03
2019-03-03T20:05:00.750Z,3.87
2019-03-03T20:07:29.518Z,4.25
2019-03-03T20:09:58.146Z,4.22
2019-03-03T20:12:26.715Z,4.90
2019-03-03T20:14:54.282Z,4.75
2019-03-03T20:17:22.825Z,4.30
2019-03-03T20:19:51.220Z,3.92
2019-03-03T20:22:19.630Z,3.60
2019-03-03T20:24:46.879Z,3.90
2019-03-03T20:27:15.412Z,4.42
2019-03-03T20:29:43.688Z,4.25
2019-03-03T20:32:12.137Z,4.40
2019-03-03T20:34:45.202Z,4.25
2019-03-03T20:37:12.574Z,3.98
2019-03-03T20:39:39.978Z,4.55
2019-03-03T20:42:07.279Z,4.30
2019-03-03T20:44:34.680Z,3.95
2019-03-03T20:47:01.993Z,4.75
2019-03-03T20:49:30.292Z,4.80
2019-03-03T20:51:58.730Z,4.22
2019-03-03T20:54:27.101Z,4.47
2019-03-03T20:56:55.329Z,4.55
2019-03-03T20:59:23.666Z,5.10
2019-03-03T21:01:52.014Z,4.30
2019-03-03T21:04:20.444Z,4.72
2019-03-03T21:06:47.841Z,4.58
2019-03-03T21:09:16.199Z,4.43
2019-03-03T21:11:44.576Z,4.35
2019-03-03T21:14:12.789Z,4.20
2019-03-03T21:16:41.046Z,4.60
2019-03-03T21:19:10.090Z,4.40
2019-03-03T21:21:38.910Z,4.33
2019-03-03T21:24:06.622Z,3.87
2019-03-03T21:26:35.108Z,3.80
2019-03-03T21:29:03.865Z,4.60
2019-03-03T21:31:32.562Z,4.08
2019-03-03T21:34:01.050Z,4.50
2019-03-03T21:36:30.150Z,4.42
2019-03-03T21:38:58.760Z,3.77
2019-03-03T21:41:27.373Z,4.05
2019-03-03T21:43:55.794Z,4.27
2019-03-03T21:46:23.210Z,2.92
2019-03-03T21:48:51.608Z,3.35
2019-03-03T21:51:20.335Z,3.43
2019-03-03T21:53:48.887Z,3.55
2019-03-03T21:56:18.136Z,3.25
2019-03-03T21:58:46.067Z,3.25
2019-03-03T22:01:14.913Z,4.33
2019-03-03T22:03:43.948Z,3.22
2019-03-03T22:06:11.606Z,3.77
2019-03-03T22:08:40.390Z,3.75
2019-03-03T22:11:09.378Z,3.60
2019-03-03T22:13:37.732Z,3.42
2019-03-03T22:16:06.026Z,3.30
2019-03-03T22:18:34.381Z,3.20
2019-03-03T22:21:02.675Z,3.20
2019-03-03T22:23:31.593Z,3.25
2019-03-03T22:25:58.998Z,2.90
2019-03-03T22:28:27.843Z,2.98
2019-03-03T22:30:56.310Z,2.80
2019-03-03T22:33:23.718Z,2.75
2019-03-03T22:35:51.722Z,2.70
2019-03-03T22:38:21.243Z,2.50
2019-03-03T22:40:50.447Z,2.60
2019-03-03T22:43:19.652Z,2.57
2019-03-03T22:45:47.514Z,3.20
2019-03-03T22:48:15.655Z,2.53
2019-03-03T22:50:43.340Z,2.65
2019-03-03T22:53:12.751Z,2.50
2019-03-03T22:55:40.584Z,3.17
2019-03-03T22:58:09.434Z,2.80
2019-03-03T23:01:13.711Z,2.40
2019-03-03T23:04:40.639Z,2.50
2019-03-03T23:07:25.335Z,2.50
2019-03-03T23:10:22.179Z,2.67
2019-03-03T23:13:25.191Z,2.15
2019-03-03T23:16:03.691Z,2.90
2019-03-03T23:19:04.022Z,2.70
2019-03-03T23:22:03.422Z,2.80
2019-03-03T23:24:46.438Z,2.40
2019-03-03T23:27:14.247Z,2.85
2019-03-03T23:29:41.473Z,2.87
2019-03-03T23:32:09.436Z,2.75
2019-03-03T23:34:37.014Z,2.70
2019-03-03T23:37:04.226Z,2.45
2019-03-03T23:39:31.811Z,2.90
2019-03-03T23:41:59.266Z,3.00
2019-03-03T23:44:26.891Z,2.65
2019-03-03T23:46:54.384Z,2.53
2019-03-03T23:49:22.462Z,3.37
2019-03-03T23:51:49.810Z,2.63
2019-03-03T23:54:17.334Z,2.67
2019-03-03T23:56:45.862Z,3.10
2019-03-03T23:59:14.222Z,2.90
